Time;durP1;ratioP1;P1;durP2;ratioP2;P2;SDS_P1;SDS_P2;PMS_P1;PMS_P2;Temp;Humidity;BMP_temperature;BMP_pressure;BME280_temperature;BME280_humidity;BME280_pressure;Samples;Min_cycle;Max_cycle;Signal;HPM_P1;HPM_P2
2022/02/26 00:00:49;;;;;;;13.82;8.23;;;4.50;99.90;;;;;;5055075;28;20647;-81
2022/02/26 00:03:14;;;;;;;12.52;8.60;;;4.40;99.90;;;;;;5054938;28;20213;-81
2022/02/26 00:05:43;;;;;;;24.52;10.10;;;4.40;99.90;;;;;;5055114;28;20644;-81
2022/02/26 00:08:08;;;;;;;20.55;9.02;;;4.40;99.90;;;;;;5055099;28;20528;-82
2022/02/26 00:10:34;;;;;;;21.52;9.10;;;4.40;99.90;;;;;;5054585;28;20166;-81
2022/02/26 00:13:00;;;;;;;27.10;9.80;;;4.30;99.90;;;;;;5055074;28;20172;-81
2022/02/26 00:15:25;;;;;;;20.70;9.45;;;4.40;99.90;;;;;;5055032;28;20187;-81
2022/02/26 00:17:51;;;;;;;17.83;9.25;;;4.40;99.90;;;;;;5055418;28;20175;-82
2022/02/26 00:20:17;;;;;;;15.75;7.68;;;4.40;99.90;;;;;;5054569;28;20167;-81
2022/02/26 00:22:42;;;;;;;16.38;8.38;;;4.50;99.90;;;;;;5055507;28;20166;-82
2022/02/26 00:25:10;;;;;;;14.27;8.88;;;4.50;99.90;;;;;;5056176;28;20211;-82
2022/02/26 00:27:36;;;;;;;19.85;9.15;;;4.20;99.90;;;;;;5055010;28;20163;-82
2022/02/26 00:30:02;;;;;;;18.40;8.40;;;4.10;99.90;;;;;;5053586;28;20167;-82
2022/02/26 00:32:28;;;;;;;17.63;10.27;;;3.90;99.90;;;;;;5054323;28;20171;-82
2022/02/26 00:34:53;;;;;;;24.25;9.20;;;3.80;99.90;;;;;;5057451;28;20210;-82
2022/02/26 00:37:19;;;;;;;21.83;9.55;;;3.90;99.90;;;;;;5058354;28;20526;-82
2022/02/26 00:39:45;;;;;;;20.65;8.73;;;3.80;99.90;;;;;;5057822;28;20182;-82
2022/02/26 00:42:11;;;;;;;28.85;10.15;;;4.00;99.90;;;;;;5060159;28;20178;-82
2022/02/26 00:44:41;;;;;;;22.35;9.77;;;4.00;99.90;;;;;;5064493;28;20191;-81
2022/02/26 00:47:11;;;;;;;27.40;10.18;;;3.90;99.90;;;;;;5066610;28;20207;-81
2022/02/26 00:49:52;;;;;;;17.92;8.38;;;4.20;99.90;;;;;;5048822;28;20181;-80
2022/02/26 00:52:26;;;;;;;14.02;9.07;;;3.90;99.90;;;;;;5053934;28;20690;-81
2022/02/26 00:54:52;;;;;;;18.88;9.00;;;3.80;99.90;;;;;;5054230;28;21013;-81
2022/02/26 00:57:18;;;;;;;19.88;8.77;;;3.90;99.90;;;;;;5052428;28;20179;-81
2022/02/26 00:59:43;;;;;;;18.70;8.77;;;3.70;99.90;;;;;;5052615;28;20545;-81
2022/02/26 01:02:09;;;;;;;25.20;9.30;;;3.60;99.90;;;;;;5052283;28;20178;-81
2022/02/26 01:04:36;;;;;;;24.50;8.95;;;3.50;99.90;;;;;;5054079;28;20730;-81
2022/02/26 01:07:03;;;;;;;13.52;7.38;;;3.50;99.90;;;;;;5054117;28;20199;-82
2022/02/26 01:09:29;;;;;;;20.48;9.23;;;3.50;99.90;;;;;;5052177;28;20278;-81
2022/02/26 01:11:55;;;;;;;14.30;8.38;;;3.50;99.90;;;;;;5052257;28;20210;-81
2022/02/26 01:14:21;;;;;;;19.05;9.68;;;3.60;99.90;;;;;;5052809;28;20663;-81
2022/02/26 01:16:47;;;;;;;22.58;9.00;;;3.40;99.90;;;;;;5053850;28;20171;-81
2022/02/26 01:19:13;;;;;;;20.75;8.15;;;3.30;99.90;;;;;;5052673;28;20166;-80
2022/02/26 01:21:38;;;;;;;18.80;8.82;;;3.40;99.90;;;;;;5052797;28;20171;-81
2022/02/26 01:24:04;;;;;;;19.58;10.27;;;3.50;99.90;;;;;;5052688;28;20213;-81
2022/02/26 01:26:30;;;;;;;15.40;8.70;;;3.50;99.90;;;;;;5052488;28;20306;-81
2022/02/26 01:28:56;;;;;;;19.40;8.27;;;3.60;99.90;;;;;;5054661;28;20190;-81
2022/02/26 01:31:23;;;;;;;18.77;9.23;;;3.70;99.90;;;;;;5053765;28;20224;-81
2022/02/26 01:33:48;;;;;;;18.05;8.48;;;3.80;99.90;;;;;;5052404;28;20163;-81
2022/02/26 01:36:14;;;;;;;17.73;8.50;;;3.90;99.90;;;;;;5053157;28;20185;-81
2022/02/26 01:38:40;;;;;;;18.30;8.45;;;3.80;99.90;;;;;;5053684;28;20563;-82
2022/02/26 01:41:06;;;;;;;13.90;8.73;;;3.80;99.90;;;;;;5064127;28;20178;-81
2022/02/26 01:43:33;;;;;;;17.38;8.60;;;3.60;99.90;;;;;;5067981;28;20305;-81
2022/02/26 01:46:00;;;;;;;17.90;8.93;;;3.60;99.90;;;;;;5062680;28;20675;-81
2022/02/26 01:48:25;;;;;;;18.95;9.27;;;3.70;99.90;;;;;;5056117;28;20258;-81
2022/02/26 01:50:52;;;;;;;20.90;8.98;;;3.80;99.90;;;;;;5053208;28;20205;-81
2022/02/26 01:53:18;;;;;;;25.70;8.80;;;3.50;99.90;;;;;;5052723;28;20179;-82
2022/02/26 01:55:44;;;;;;;13.75;7.18;;;3.60;99.90;;;;;;5051132;28;20187;-81
2022/02/26 01:58:10;;;;;;;17.45;9.38;;;3.60;99.90;;;;;;5052664;28;20686;-81
2022/02/26 02:00:35;;;;;;;13.85;8.18;;;3.70;99.90;;;;;;5054966;28;20516;-81
2022/02/26 02:03:01;;;;;;;18.10;9.27;;;3.80;99.90;;;;;;5055100;28;20647;-82
2022/02/26 02:05:29;;;;;;;15.57;8.30;;;3.70;99.90;;;;;;5054325;28;20260;-81
2022/02/26 02:07:56;;;;;;;17.52;8.27;;;3.60;99.90;;;;;;5054678;28;20546;-81
2022/02/26 02:10:22;;;;;;;14.50;9.02;;;3.50;99.90;;;;;;5056065;28;20191;-82
2022/02/26 02:12:48;;;;;;;12.00;8.55;;;3.50;99.90;;;;;;5055148;28;20620;-81
2022/02/26 02:15:14;;;;;;;24.95;10.05;;;3.70;99.90;;;;;;5054867;28;20198;-81
2022/02/26 02:17:44;;;;;;;14.90;8.63;;;3.70;99.90;;;;;;5056317;28;20698;-81
2022/02/26 02:20:10;;;;;;;14.23;8.48;;;3.60;99.90;;;;;;5056217;28;20675;-81
2022/02/26 02:22:36;;;;;;;14.38;7.68;;;3.30;99.90;;;;;;5054925;28;20205;-81
2022/02/26 02:25:03;;;;;;;21.45;8.80;;;3.40;99.90;;;;;;5054678;28;20234;-81
2022/02/26 02:27:29;;;;;;;18.10;9.02;;;3.70;99.90;;;;;;5054632;28;20316;-82
2022/02/26 02:29:55;;;;;;;16.20;8.40;;;3.60;99.90;;;;;;5054780;28;20207;-82
2022/02/26 02:32:21;;;;;;;28.13;8.20;;;3.40;99.90;;;;;;5055857;28;20176;-80
2022/02/26 02:34:47;;;;;;;26.38;9.05;;;3.20;99.90;;;;;;5054797;28;20202;-81
2022/02/26 02:37:12;;;;;;;19.73;7.97;;;3.40;99.90;;;;;;5054214;28;20178;-81
2022/02/26 02:39:41;;;;;;;18.27;7.30;;;3.40;99.90;;;;;;5054799;28;20685;-82
2022/02/26 02:42:07;;;;;;;14.68;7.65;;;3.00;99.90;;;;;;5054693;28;20174;-81
2022/02/26 02:44:33;;;;;;;22.50;8.13;;;2.90;99.90;;;;;;5055844;28;20191;-81
2022/02/26 02:46:59;;;;;;;10.45;6.97;;;3.00;99.90;;;;;;5055294;28;20207;-81
2022/02/26 02:49:24;;;;;;;19.27;6.93;;;3.00;99.90;;;;;;5054414;28;20576;-80
2022/02/26 02:51:50;;;;;;;11.60;6.82;;;3.10;99.90;;;;;;5055569;28;20210;-81
2022/02/26 02:54:16;;;;;;;14.25;7.88;;;3.20;99.90;;;;;;5054395;28;20524;-80
2022/02/26 02:56:41;;;;;;;13.27;6.88;;;3.30;99.90;;;;;;5055783;28;20191;-81
2022/02/26 02:59:07;;;;;;;18.58;7.47;;;3.40;99.90;;;;;;5055577;28;20678;-81
2022/02/26 03:01:32;;;;;;;13.70;8.05;;;3.30;99.90;;;;;;5055240;28;20657;-80
2022/02/26 03:03:58;;;;;;;13.43;7.07;;;3.50;99.90;;;;;;5055332;28;20159;-81
2022/02/26 03:06:25;;;;;;;10.82;8.00;;;3.40;99.90;;;;;;5053814;28;20211;-80
2022/02/26 03:08:51;;;;;;;17.05;7.40;;;3.40;99.90;;;;;;5055063;28;20171;-81
2022/02/26 03:11:19;;;;;;;17.38;8.40;;;3.30;99.90;;;;;;5053647;28;20182;-81
2022/02/26 03:13:45;;;;;;;13.13;8.80;;;3.30;99.90;;;;;;5058812;28;20297;-81
2022/02/26 03:16:11;;;;;;;12.25;7.80;;;3.00;99.90;;;;;;5066146;28;20162;-81
2022/02/26 03:18:37;;;;;;;25.08;8.02;;;2.90;99.90;;;;;;5079424;28;20156;-80
2022/02/26 03:21:02;;;;;;;18.80;8.45;;;2.80;99.90;;;;;;5054524;28;20209;-79
2022/02/26 03:23:28;;;;;;;20.88;8.07;;;2.70;99.90;;;;;;5054851;28;20285;-80
2022/02/26 03:25:54;;;;;;;20.25;7.65;;;2.90;99.90;;;;;;5053416;28;20714;-80
2022/02/26 03:28:19;;;;;;;16.45;7.40;;;2.90;99.90;;;;;;5054858;28;20178;-80
2022/02/26 03:30:45;;;;;;;15.55;7.30;;;2.80;99.90;;;;;;5054950;28;20254;-80
2022/02/26 03:33:11;;;;;;;8.57;7.00;;;2.80;99.90;;;;;;5054926;28;20194;-81
2022/02/26 03:35:39;;;;;;;9.80;6.97;;;2.90;99.90;;;;;;5055156;28;20614;-80
2022/02/26 03:38:06;;;;;;;15.05;7.70;;;2.90;99.90;;;;;;5053517;28;20248;-81
2022/02/26 03:40:33;;;;;;;14.10;7.70;;;2.90;99.90;;;;;;5054767;28;20171;-81
2022/02/26 03:42:58;;;;;;;15.73;7.93;;;2.90;99.90;;;;;;5053639;28;20250;-80
2022/02/26 03:45:24;;;;;;;13.90;7.85;;;2.80;99.90;;;;;;5053071;28;20301;-80
2022/02/26 03:47:50;;;;;;;13.32;6.38;;;2.50;99.90;;;;;;5053402;28;20550;-81
2022/02/26 03:50:15;;;;;;;15.13;7.90;;;2.60;99.90;;;;;;5054495;28;20574;-81
2022/02/26 03:52:41;;;;;;;19.73;7.50;;;2.70;99.90;;;;;;5054408;28;20170;-81
2022/02/26 03:55:08;;;;;;;17.70;6.65;;;2.60;99.90;;;;;;5054852;28;20194;-80
2022/02/26 03:57:34;;;;;;;15.27;7.47;;;2.80;99.90;;;;;;5055394;28;20163;-81
2022/02/26 04:00:00;;;;;;;9.57;7.50;;;3.10;99.90;;;;;;5053692;28;20175;-81
2022/02/26 04:02:26;;;;;;;22.52;7.40;;;3.00;99.90;;;;;;5053452;28;20166;-81
2022/02/26 04:04:52;;;;;;;9.32;6.88;;;3.00;99.90;;;;;;5054686;28;20534;-81
2022/02/26 04:07:18;;;;;;;18.95;7.72;;;3.00;99.90;;;;;;5053508;28;20259;-81
2022/02/26 04:09:44;;;;;;;26.17;7.53;;;3.00;99.90;;;;;;5054259;28;20577;-81
2022/02/26 04:12:10;;;;;;;16.10;7.35;;;3.10;99.90;;;;;;5052762;28;20179;-81
2022/02/26 04:14:35;;;;;;;18.95;8.50;;;3.10;99.90;;;;;;5052843;28;20195;-81
2022/02/26 04:17:01;;;;;;;19.58;8.98;;;2.90;99.90;;;;;;5054268;28;20667;-82
2022/02/26 04:19:27;;;;;;;21.73;7.30;;;2.80;99.90;;;;;;5054418;28;20181;-82
2022/02/26 04:21:53;;;;;;;13.95;7.43;;;2.70;99.90;;;;;;5052983;28;20547;-80
2022/02/26 04:24:18;;;;;;;15.13;7.30;;;2.70;99.90;;;;;;5052363;28;20755;-81
2022/02/26 04:26:47;;;;;;;18.20;8.00;;;2.80;99.90;;;;;;5052025;28;20210;-81
2022/02/26 04:29:12;;;;;;;10.32;7.60;;;2.70;99.90;;;;;;5052605;28;20254;-81
2022/02/26 04:31:38;;;;;;;11.30;8.35;;;2.80;99.90;;;;;;5053440;28;20267;-81
2022/02/26 04:34:04;;;;;;;14.88;7.25;;;2.50;99.90;;;;;;5053471;28;20655;-81
2022/02/26 04:36:31;;;;;;;29.42;8.90;;;2.30;99.90;;;;;;5053669;28;20171;-81
2022/02/26 04:38:56;;;;;;;14.68;7.20;;;2.30;99.90;;;;;;5053817;28;20185;-81
2022/02/26 04:41:22;;;;;;;15.65;6.80;;;2.30;99.90;;;;;;5052357;28;20635;-81
2022/02/26 04:43:48;;;;;;;22.17;8.13;;;2.30;99.90;;;;;;5053885;28;20174;-81
2022/02/26 04:46:14;;;;;;;17.00;6.55;;;2.40;99.90;;;;;;5055296;28;20233;-81
2022/02/26 04:48:39;;;;;;;12.32;6.80;;;2.40;99.90;;;;;;5059409;28;20203;-82
2022/02/26 04:51:08;;;;;;;18.90;7.53;;;2.40;99.90;;;;;;5054108;28;20292;-81
2022/02/26 04:53:35;;;;;;;19.23;8.15;;;2.40;99.90;;;;;;5054575;28;20167;-82
2022/02/26 04:56:02;;;;;;;26.00;7.32;;;2.50;99.90;;;;;;5056412;28;20183;-79
2022/02/26 04:58:28;;;;;;;9.73;7.10;;;2.70;99.90;;;;;;5058273;28;20171;-80
2022/02/26 05:00:53;;;;;;;15.65;8.13;;;2.50;99.90;;;;;;5056175;28;20583;-81
2022/02/26 05:03:19;;;;;;;18.45;7.78;;;2.60;99.90;;;;;;5057126;28;20174;-81
2022/02/26 05:05:45;;;;;;;14.18;7.47;;;2.80;99.90;;;;;;5054298;28;20232;-80
2022/02/26 05:08:11;;;;;;;19.85;8.50;;;2.80;99.90;;;;;;5057194;28;20674;-79
2022/02/26 05:10:38;;;;;;;11.13;6.80;;;2.60;99.90;;;;;;5057429;28;20167;-80
2022/02/26 05:13:04;;;;;;;25.48;7.68;;;2.60;99.90;;;;;;5055986;28;20546;-80
2022/02/26 05:15:31;;;;;;;22.13;7.00;;;2.60;99.90;;;;;;5061554;28;20195;-80
2022/02/26 05:17:59;;;;;;;12.20;6.88;;;2.60;99.90;;;;;;5070476;28;20194;-81
2022/02/26 05:20:27;;;;;;;17.67;7.28;;;2.50;99.90;;;;;;5062025;28;20250;-81
2022/02/26 05:22:52;;;;;;;16.23;7.03;;;2.60;99.90;;;;;;5057149;28;20159;-80
2022/02/26 05:25:18;;;;;;;24.50;8.50;;;2.50;99.90;;;;;;5056630;28;20660;-81
2022/02/26 05:27:44;;;;;;;11.45;6.68;;;2.50;99.90;;;;;;5053865;28;20182;-81
2022/02/26 05:30:15;;;;;;;12.77;7.10;;;2.30;99.90;;;;;;5055512;28;20167;-81
2022/02/26 05:32:41;;;;;;;13.07;7.53;;;2.70;99.90;;;;;;5050965;28;20167;-81
2022/02/26 05:35:07;;;;;;;8.95;5.88;;;2.90;99.90;;;;;;5051602;28;20548;-81
2022/02/26 05:37:33;;;;;;;10.95;7.30;;;2.80;99.90;;;;;;5051498;28;20232;-80
2022/02/26 05:39:58;;;;;;;21.50;7.88;;;2.90;99.90;;;;;;5053065;28;20655;-81
2022/02/26 05:42:24;;;;;;;12.10;6.80;;;3.00;99.90;;;;;;5051629;28;20708;-80
2022/02/26 05:44:49;;;;;;;12.63;6.78;;;2.90;99.90;;;;;;5052270;28;20227;-80
2022/02/26 05:47:15;;;;;;;15.57;8.10;;;2.70;99.90;;;;;;5066753;28;20214;-79
2022/02/26 05:49:41;;;;;;;18.17;8.00;;;2.70;99.90;;;;;;5074147;28;20743;-81
2022/02/26 05:52:07;;;;;;;16.95;7.25;;;2.50;99.90;;;;;;5075148;28;20197;-81
2022/02/26 05:54:35;;;;;;;25.00;7.35;;;2.40;99.90;;;;;;5063899;28;20195;-80
2022/02/26 05:57:01;;;;;;;12.88;6.18;;;2.40;99.90;;;;;;5050639;28;20189;-81
2022/02/26 05:59:26;;;;;;;11.82;6.72;;;2.20;99.90;;;;;;5051807;28;20624;-81
2022/02/26 06:01:52;;;;;;;14.57;7.57;;;2.40;99.90;;;;;;5050533;28;20690;-82
2022/02/26 06:04:18;;;;;;;9.70;6.43;;;2.40;99.90;;;;;;5052085;28;20191;-81
2022/02/26 06:06:43;;;;;;;10.10;6.47;;;2.50;99.90;;;;;;5050731;28;20221;-81
2022/02/26 06:09:09;;;;;;;22.73;7.20;;;2.50;99.90;;;;;;5050979;28;20576;-81
2022/02/26 06:11:34;;;;;;;17.50;7.70;;;2.60;99.90;;;;;;5050446;28;20179;-80
2022/02/26 06:14:00;;;;;;;13.90;6.22;;;2.50;99.90;;;;;;5050744;28;20221;-81
2022/02/26 06:16:25;;;;;;;12.77;7.05;;;2.50;99.90;;;;;;5052699;28;20202;-81
2022/02/26 06:18:51;;;;;;;16.98;8.68;;;2.40;99.90;;;;;;5052111;28;20706;-82
2022/02/26 06:21:17;;;;;;;12.48;7.78;;;2.50;99.90;;;;;;5050506;28;20225;-81
2022/02/26 06:23:42;;;;;;;18.35;7.35;;;2.50;99.90;;;;;;5050587;28;20570;-81
2022/02/26 06:26:08;;;;;;;18.50;8.48;;;2.50;99.90;;;;;;5050163;28;20226;-80
2022/02/26 06:28:33;;;;;;;24.25;7.68;;;2.50;99.90;;;;;;5050236;28;20163;-80
2022/02/26 06:30:59;;;;;;;13.68;6.55;;;2.40;99.90;;;;;;5050112;28;20170;-80
2022/02/26 06:33:25;;;;;;;18.30;8.60;;;2.40;99.90;;;;;;5050435;28;20171;-80
2022/02/26 06:35:50;;;;;;;14.70;7.28;;;2.40;99.90;;;;;;5051865;28;20225;-81
2022/02/26 06:38:16;;;;;;;12.73;6.82;;;2.30;99.90;;;;;;5052000;28;20523;-81
2022/02/26 06:40:42;;;;;;;16.85;7.38;;;2.30;99.90;;;;;;5050541;28;20210;-81
2022/02/26 06:43:08;;;;;;;13.60;6.50;;;2.20;99.90;;;;;;5050720;28;20198;-81
2022/02/26 06:45:33;;;;;;;11.93;6.20;;;2.30;99.90;;;;;;5053537;28;20748;-81
2022/02/26 06:47:59;;;;;;;15.55;7.55;;;2.40;99.90;;;;;;5054116;28;20167;-80
2022/02/26 06:50:24;;;;;;;11.35;7.68;;;2.60;99.90;;;;;;5054246;28;20631;-83
2022/02/26 06:52:50;;;;;;;9.52;6.65;;;2.70;99.90;;;;;;5054311;28;20254;-81
2022/02/26 06:55:16;;;;;;;15.23;7.50;;;2.60;99.90;;;;;;5054958;28;20232;-79
2022/02/26 06:57:42;;;;;;;16.45;7.10;;;2.50;99.90;;;;;;5055478;28;20221;-81
2022/02/26 07:00:10;;;;;;;9.25;6.68;;;2.60;99.90;;;;;;5054042;28;20164;-80
2022/02/26 07:02:36;;;;;;;18.98;7.22;;;2.70;99.90;;;;;;5055308;28;20163;-80
2022/02/26 07:05:03;;;;;;;15.30;6.90;;;2.70;99.90;;;;;;5055282;28;20197;-79
2022/02/26 07:07:28;;;;;;;11.90;6.57;;;2.60;99.90;;;;;;5055397;28;20277;-78
2022/02/26 07:09:55;;;;;;;9.93;6.88;;;2.70;99.90;;;;;;5055026;28;20712;-78
2022/02/26 07:12:20;;;;;;;10.48;6.70;;;2.70;99.90;;;;;;5054941;28;20167;-80
2022/02/26 07:14:46;;;;;;;11.43;7.55;;;2.80;99.90;;;;;;5054891;28;20270;-79
2022/02/26 07:17:12;;;;;;;26.33;7.85;;;2.90;99.90;;;;;;5055153;28;20536;-79
2022/02/26 07:19:38;;;;;;;22.45;6.55;;;2.80;99.90;;;;;;5055456;28;20167;-82
2022/02/26 07:22:04;;;;;;;12.30;6.13;;;2.80;99.90;;;;;;5055202;28;20551;-78
2022/02/26 07:24:29;;;;;;;8.25;5.70;;;2.90;99.90;;;;;;5053428;28;20207;-79
2022/02/26 07:26:55;;;;;;;11.45;6.80;;;3.10;99.90;;;;;;5054700;28;20207;-80
2022/02/26 07:29:21;;;;;;;24.52;7.97;;;3.30;99.90;;;;;;5054695;28;20217;-80
2022/02/26 07:31:47;;;;;;;17.02;8.68;;;3.60;99.90;;;;;;5053435;28;20171;-79
2022/02/26 07:34:13;;;;;;;12.00;8.75;;;3.90;99.90;;;;;;5054625;28;20273;-78
2022/02/26 07:36:38;;;;;;;19.77;9.32;;;4.20;99.90;;;;;;5054776;28;20206;-78
2022/02/26 07:39:05;;;;;;;22.67;9.23;;;4.30;99.90;;;;;;5053647;28;20171;-78
2022/02/26 07:41:31;;;;;;;17.42;8.90;;;4.40;99.90;;;;;;5053074;28;20167;-79
2022/02/26 07:43:57;;;;;;;15.68;8.48;;;4.50;99.90;;;;;;5054166;28;20651;-79
2022/02/26 07:46:22;;;;;;;9.95;8.27;;;4.60;99.90;;;;;;5053282;28;20215;-80
2022/02/26 07:48:48;;;;;;;20.58;8.25;;;4.40;99.90;;;;;;5054580;28;20508;-79
2022/02/26 07:51:14;;;;;;;18.42;9.13;;;4.70;99.90;;;;;;5054359;28;20691;-79
2022/02/26 07:53:40;;;;;;;20.05;8.27;;;5.00;99.90;;;;;;5053958;28;20643;-78
2022/02/26 07:56:06;;;;;;;20.77;9.75;;;5.10;99.90;;;;;;5054245;28;20192;-88
2022/02/26 07:58:32;;;;;;;17.77;8.50;;;5.20;99.90;;;;;;5054391;28;20224;-87
2022/02/26 08:00:57;;;;;;;19.08;10.65;;;5.30;99.90;;;;;;5053957;28;20190;-77
2022/02/26 08:03:23;;;;;;;23.65;9.98;;;5.40;99.90;;;;;;5054071;28;20289;-78
2022/02/26 08:05:49;;;;;;;17.27;9.75;;;5.60;99.90;;;;;;5054131;28;20289;-78
2022/02/26 08:08:14;;;;;;;19.60;8.68;;;5.80;99.90;;;;;;5052724;28;20179;-77
2022/02/26 08:10:40;;;;;;;23.02;9.48;;;6.10;99.90;;;;;;5053947;28;20178;-79
2022/02/26 08:13:05;;;;;;;19.50;10.45;;;6.20;99.90;;;;;;5053457;28;20167;-78
2022/02/26 08:15:31;;;;;;;28.02;8.93;;;6.30;99.90;;;;;;5053793;28;20194;-77
2022/02/26 08:17:57;;;;;;;16.30;7.82;;;6.50;99.90;;;;;;5054824;28;20163;-77
2022/02/26 08:20:23;;;;;;;19.88;8.43;;;6.40;99.90;;;;;;5067820;28;20177;-78
2022/02/26 08:22:50;;;;;;;27.27;9.02;;;6.40;99.90;;;;;;5069116;28;20202;-78
2022/02/26 08:25:16;;;;;;;23.58;8.07;;;6.20;99.90;;;;;;5053415;28;20210;-78
2022/02/26 08:27:43;;;;;;;18.23;8.30;;;6.10;99.90;;;;;;5053629;28;20175;-79
2022/02/26 08:30:11;;;;;;;26.88;8.68;;;6.30;99.90;;;;;;5052182;28;20175;-82
2022/02/26 08:32:37;;;;;;;17.70;8.23;;;6.20;99.90;;;;;;5053542;28;20189;-84
2022/02/26 08:35:04;;;;;;;18.73;7.45;;;6.30;99.90;;;;;;5052176;28;20183;-80
2022/02/26 08:37:30;;;;;;;24.13;7.15;;;6.30;99.90;;;;;;5051995;28;20155;-80
2022/02/26 08:39:56;;;;;;;13.95;7.38;;;6.50;99.90;;;;;;5052922;28;20169;-81
2022/02/26 08:42:21;;;;;;;30.58;8.38;;;6.40;99.90;;;;;;5052216;28;20199;-81
2022/02/26 08:44:47;;;;;;;15.35;6.18;;;6.30;99.90;;;;;;5052957;28;20237;-80
2022/02/26 08:47:13;;;;;;;19.40;8.10;;;6.30;99.90;;;;;;5051695;28;20667;-79
2022/02/26 08:49:39;;;;;;;18.38;7.18;;;6.40;99.90;;;;;;5035989;28;20178;-78
2022/02/26 08:52:05;;;;;;;26.77;7.50;;;6.70;99.90;;;;;;5031605;28;20636;-78
2022/02/26 08:54:31;;;;;;;16.55;6.30;;;6.70;99.90;;;;;;5031668;28;20279;-78
2022/02/26 08:56:57;;;;;;;27.67;6.85;;;6.80;99.90;;;;;;5033013;28;20621;-78
2022/02/26 08:59:23;;;;;;;20.05;7.28;;;6.70;99.90;;;;;;5033398;28;20172;-81
2022/02/26 09:01:49;;;;;;;21.23;6.18;;;6.70;99.90;;;;;;5037819;28;20175;-80
2022/02/26 09:04:14;;;;;;;18.08;6.70;;;6.80;99.90;;;;;;5033334;28;20175;-80
2022/02/26 09:06:40;;;;;;;17.50;7.15;;;7.00;99.90;;;;;;5033569;28;20286;-79
2022/02/26 09:09:09;;;;;;;25.40;6.60;;;7.00;99.90;;;;;;5030895;28;20179;-80
2022/02/26 09:11:39;;;;;;;16.88;5.80;;;7.00;99.90;;;;;;5032054;28;20182;-84
2022/02/26 09:14:05;;;;;;;10.95;5.22;;;7.00;99.90;;;;;;5033081;28;20203;-79
2022/02/26 09:16:32;;;;;;;21.70;6.38;;;7.20;99.90;;;;;;5033273;28;20261;-79
2022/02/26 09:18:57;;;;;;;18.55;6.20;;;7.20;99.90;;;;;;5033001;28;20198;-80
2022/02/26 09:21:23;;;;;;;19.38;6.13;;;7.30;99.90;;;;;;5033145;28;20636;-80
2022/02/26 09:23:49;;;;;;;22.77;6.22;;;7.30;99.90;;;;;;5033063;28;20259;-79
2022/02/26 09:26:14;;;;;;;21.45;6.43;;;7.40;99.90;;;;;;5032870;28;20219;-81
2022/02/26 09:28:42;;;;;;;20.83;5.88;;;7.50;99.90;;;;;;5032765;28;20219;-78
2022/02/26 09:31:09;;;;;;;20.55;5.25;;;7.60;99.90;;;;;;5033187;28;20746;-87
2022/02/26 09:33:36;;;;;;;13.68;5.15;;;7.50;99.90;;;;;;5033504;28;20246;-86
2022/02/26 09:36:04;;;;;;;16.42;5.70;;;7.50;99.90;;;;;;5040012;28;20539;-78
2022/02/26 09:38:30;;;;;;;15.57;5.45;;;7.30;99.90;;;;;;5053356;28;20237;-82
2022/02/26 09:40:58;;;;;;;27.05;5.70;;;7.50;99.90;;;;;;5053353;28;20156;-78
2022/02/26 09:43:25;;;;;;;23.13;6.70;;;7.60;99.90;;;;;;5053929;28;20568;-79
2022/02/26 09:45:52;;;;;;;19.08;7.22;;;7.80;99.90;;;;;;5046002;28;20198;-78
2022/02/26 09:48:18;;;;;;;24.38;8.38;;;7.80;99.90;;;;;;5033140;28;20172;-77
2022/02/26 09:50:44;;;;;;;33.70;8.98;;;8.00;99.90;;;;;;5033248;28;20175;-80
2022/02/26 09:53:11;;;;;;;29.95;10.27;;;7.70;99.90;;;;;;5038956;28;20176;-79
2022/02/26 09:55:37;;;;;;;23.20;9.15;;;7.70;99.90;;;;;;5045132;28;20212;-78
2022/02/26 09:58:03;;;;;;;16.67;8.93;;;7.80;99.90;;;;;;5047188;28;20175;-78
2022/02/26 10:00:29;;;;;;;24.77;8.60;;;7.70;99.90;;;;;;5054066;28;20188;-85
2022/02/26 10:02:55;;;;;;;27.55;8.77;;;7.40;99.90;;;;;;5052719;28;20171;-78
2022/02/26 10:05:21;;;;;;;27.95;9.23;;;7.20;99.90;;;;;;5052219;28;20228;-77
2022/02/26 10:07:49;;;;;;;19.42;9.25;;;7.40;99.90;;;;;;5052340;28;20167;-79
2022/02/26 10:10:22;;;;;;;22.02;9.00;;;7.70;99.90;;;;;;5052224;28;20167;-84
2022/02/26 10:12:56;;;;;;;34.53;8.30;;;7.80;99.90;;;;;;5052214;28;20167;-78
2022/02/26 10:15:24;;;;;;;16.33;7.10;;;7.80;99.90;;;;;;5037071;28;20703;-83
2022/02/26 10:17:59;;;;;;;28.02;7.93;;;7.50;99.90;;;;;;5040966;28;20171;-79
2022/02/26 10:20:25;;;;;;;20.67;8.48;;;7.60;99.90;;;;;;5043536;28;20179;-80
2022/02/26 10:22:52;;;;;;;22.83;7.28;;;7.50;99.90;;;;;;5048906;28;20636;-82
2022/02/26 10:25:22;;;;;;;19.10;7.05;;;7.40;99.90;;;;;;5038677;28;20226;-86
2022/02/26 10:27:53;;;;;;;23.27;7.50;;;7.30;99.90;;;;;;5042483;28;20183;-86
2022/02/26 10:30:22;;;;;;;19.25;7.22;;;7.20;99.90;;;;;;5055209;28;20163;-80
2022/02/26 10:33:07;;;;;;;17.42;6.82;;;7.20;99.90;;;;;;5055256;28;20171;-80
2022/02/26 10:35:38;;;;;;;18.55;5.70;;;7.40;99.90;;;;;;5053197;28;20187;-83
2022/02/26 10:38:32;;;;;;;12.85;5.25;;;7.40;99.90;;;;;;5053954;28;20186;-79
2022/02/26 10:41:12;;;;;;;17.42;6.25;;;7.40;99.90;;;;;;5053832;28;20209;-93
2022/02/26 10:43:48;;;;;;;15.30;5.93;;;7.40;99.90;;;;;;5053379;28;20205;-80
2022/02/26 10:46:24;;;;;;;17.80;5.72;;;7.40;99.90;;;;;;5053498;28;20685;-80
2022/02/26 10:48:53;;;;;;;20.52;5.65;;;7.50;99.90;;;;;;5054857;28;20269;-80
2022/02/26 10:51:25;;;;;;;17.27;5.53;;;7.60;99.90;;;;;;5057567;28;20220;-81
2022/02/26 10:53:51;;;;;;;17.33;5.35;;;7.70;99.90;;;;;;5071685;28;20178;-79
2022/02/26 10:56:17;;;;;;;21.50;5.63;;;7.70;99.90;;;;;;5072088;28;20171;-84
2022/02/26 10:58:43;;;;;;;15.82;5.30;;;7.80;99.90;;;;;;5053154;28;20171;-80
2022/02/26 11:01:15;;;;;;;15.77;5.78;;;7.60;99.90;;;;;;5052923;28;20181;-80
2022/02/26 11:03:42;;;;;;;24.52;6.70;;;7.70;99.90;;;;;;5055264;28;20595;-78
2022/02/26 11:06:09;;;;;;;23.17;6.00;;;7.60;99.90;;;;;;5053962;28;20222;-78
2022/02/26 11:08:36;;;;;;;31.40;6.45;;;7.60;99.90;;;;;;5054247;28;20187;-81
2022/02/26 11:11:04;;;;;;;19.25;5.30;;;7.60;99.90;;;;;;5054011;28;20549;-79
2022/02/26 11:13:31;;;;;;;21.98;6.53;;;7.60;99.90;;;;;;5055271;28;20168;-80
2022/02/26 11:15:57;;;;;;;14.25;7.75;;;7.70;99.90;;;;;;5053754;28;20744;-79
2022/02/26 11:18:30;;;;;;;14.63;6.07;;;7.80;99.90;;;;;;5054351;28;20171;-81
2022/02/26 11:20:57;;;;;;;11.75;5.55;;;7.90;99.90;;;;;;5053304;28;20266;-81
2022/02/26 11:23:24;;;;;;;13.30;6.38;;;7.90;99.90;;;;;;5054632;28;20573;-81
2022/02/26 11:25:52;;;;;;;8.82;4.72;;;7.90;99.90;;;;;;5052940;28;20206;-81
2022/02/26 11:28:18;;;;;;;15.18;5.55;;;8.00;99.90;;;;;;5053983;28;20232;-83
2022/02/26 11:30:59;;;;;;;15.23;6.38;;;8.00;99.90;;;;;;5053777;28;20336;-81
2022/02/26 11:33:26;;;;;;;13.82;5.47;;;8.10;99.90;;;;;;5053492;28;20159;-81
2022/02/26 11:35:54;;;;;;;13.90;5.40;;;8.20;99.90;;;;;;5054044;28;20191;-80
2022/02/26 11:38:22;;;;;;;17.08;6.50;;;8.20;99.90;;;;;;5055088;28;20170;-80
2022/02/26 11:41:23;;;;;;;11.02;5.80;;;8.20;99.90;;;;;;5055657;28;20215;-79
2022/02/26 11:43:54;;;;;;;18.60;6.18;;;8.00;99.90;;;;;;5055811;28;20179;-79
2022/02/26 11:46:36;;;;;;;12.43;4.53;;;8.00;99.90;;;;;;5053896;28;20256;-82
2022/02/26 11:49:25;;;;;;;11.85;4.50;;;8.10;99.90;;;;;;5054302;28;20209;-78
2022/02/26 11:51:50;;;;;;;11.20;5.28;;;8.20;99.90;;;;;;5054401;28;20167;-78
2022/02/26 11:54:20;;;;;;;11.23;4.82;;;8.30;99.90;;;;;;5053088;28;20549;-79
2022/02/26 11:56:56;;;;;;;13.60;6.00;;;8.40;99.90;;;;;;5054288;28;20648;-79
2022/02/26 11:59:37;;;;;;;14.18;4.78;;;8.30;99.90;;;;;;5057174;28;20194;-79
2022/02/26 12:02:13;;;;;;;20.88;5.55;;;8.30;99.90;;;;;;5053751;28;20189;-79
2022/02/26 12:04:43;;;;;;;18.58;6.53;;;8.40;99.90;;;;;;5054506;28;20643;-79
2022/02/26 12:07:09;;;;;;;11.20;4.88;;;8.50;99.90;;;;;;5054463;28;20229;-79
2022/02/26 12:10:06;;;;;;;13.48;4.72;;;8.20;99.90;;;;;;5055575;28;20194;-80
2022/02/26 12:12:36;;;;;;;15.57;4.80;;;8.30;99.90;;;;;;5055725;28;20167;-79
2022/02/26 12:15:16;;;;;;;13.52;3.67;;;8.40;99.90;;;;;;5057691;28;20187;-79
2022/02/26 12:18:12;;;;;;;10.82;3.90;;;8.40;99.90;;;;;;5055371;28;20171;-86
2022/02/26 12:20:39;;;;;;;10.45;3.55;;;8.60;99.90;;;;;;5053299;28;20189;-81
2022/02/26 12:23:14;;;;;;;13.20;3.17;;;8.70;99.90;;;;;;5054582;28;20171;-79
2022/02/26 12:25:44;;;;;;;10.00;3.20;;;8.60;99.90;;;;;;5056386;28;20202;-81
2022/02/26 12:28:15;;;;;;;15.07;3.20;;;8.70;99.90;;;;;;5051543;28;20182;-81
2022/02/26 12:31:05;;;;;;;18.70;4.07;;;8.80;99.90;;;;;;5058454;28;20194;-80
2022/02/26 12:33:48;;;;;;;5.22;2.60;;;8.80;99.90;;;;;;5070916;28;20187;-80
2022/02/26 12:36:17;;;;;;;6.72;3.00;;;8.70;99.90;;;;;;5055399;28;20164;-80
2022/02/26 12:38:52;;;;;;;13.25;2.35;;;8.80;99.90;;;;;;5058262;28;20167;-81
2022/02/26 12:41:35;;;;;;;6.32;2.42;;;8.90;99.90;;;;;;5056133;28;20166;-79
2022/02/26 12:44:01;;;;;;;7.15;2.72;;;8.90;99.90;;;;;;5052187;28;20246;-80
2022/02/26 12:46:33;;;;;;;5.93;1.77;;;8.60;99.90;;;;;;5054874;28;20258;-80
2022/02/26 12:49:01;;;;;;;19.58;3.80;;;8.60;99.90;;;;;;5054389;28;20159;-83